createdAt,value
2023-03-04T00:01:08.563Z,0.30
2023-03-04T00:03:37.381Z,0.30
2023-03-04T00:06:07.608Z,0.30
2023-03-04T00:08:35.783Z,0.30
2023-03-04T00:11:03.972Z,0.30
2023-03-04T00:13:32.364Z,0.30
2023-03-04T00:16:00.513Z,0.30
2023-03-04T00:18:28.671Z,0.20
2023-03-04T00:20:57.020Z,0.20
2023-03-04T00:23:27.754Z,0.20
2023-03-04T00:25:55.941Z,0.10
2023-03-04T00:28:24.311Z,0.10
2023-03-04T00:30:52.412Z,0.10
2023-03-04T00:33:23.125Z,0.10
2023-03-04T00:35:51.507Z,0.10
2023-03-04T00:38:19.784Z,0.10
2023-03-04T00:40:49.371Z,0.10
2023-03-04T00:43:17.693Z,0.10
2023-03-04T00:45:45.897Z,0.00
2023-03-04T00:48:14.819Z,0.00
2023-03-04T00:50:43.543Z,0.00
2023-03-04T00:53:12.252Z,-0.10
2023-03-04T00:55:40.488Z,-0.10
2023-03-04T00:58:10.054Z,0.00
2023-03-04T01:00:38.338Z,-0.10
2023-03-04T01:03:06.597Z,-0.10
2023-03-04T01:05:37.848Z,-0.10
2023-03-04T01:08:06.614Z,-0.20
2023-03-04T01:10:37.175Z,-0.20
2023-03-04T01:13:05.315Z,-0.20
2023-03-04T01:15:35.017Z,-0.20
2023-03-04T01:18:03.396Z,-0.30
2023-03-04T01:20:31.592Z,-0.30
2023-03-04T01:22:59.800Z,-0.30
2023-03-04T01:25:31.067Z,-0.30
2023-03-04T01:27:59.371Z,-0.30
2023-03-04T01:30:27.482Z,-0.40
2023-03-04T01:32:57.055Z,-0.40
2023-03-04T01:35:25.440Z,-0.40
2023-03-04T01:37:55.925Z,-0.40
2023-03-04T01:40:24.184Z,-0.50
2023-03-04T01:42:52.534Z,-0.50
2023-03-04T01:45:21.301Z,-0.50
2023-03-04T01:47:50.639Z,-0.50
2023-03-04T01:50:22.654Z,-0.50
2023-03-04T01:52:51.637Z,-0.50
2023-03-04T01:55:20.722Z,-0.50
2023-03-04T01:57:49.358Z,-0.60
2023-03-04T02:00:22.353Z,-0.60
2023-03-04T02:02:52.156Z,-0.60
2023-03-04T02:05:22.465Z,-0.70
2023-03-04T02:07:50.941Z,-0.70
2023-03-04T02:10:19.372Z,-0.70
2023-03-04T02:12:47.594Z,-0.70
2023-03-04T02:15:15.961Z,-0.80
2023-03-04T02:17:44.248Z,-0.80
2023-03-04T02:20:17.029Z,-0.80
2023-03-04T02:22:48.072Z,-0.80
2023-03-04T02:25:19.715Z,-0.90
2023-03-04T02:27:49.341Z,-0.90
2023-03-04T02:30:18.177Z,-0.90
2023-03-04T02:32:46.412Z,-0.90
2023-03-04T02:35:16.200Z,-1.00
2023-03-04T02:37:44.325Z,-1.00
2023-03-04T02:40:15.933Z,-1.00
2023-03-04T02:42:44.867Z,-1.10
2023-03-04T02:45:31.456Z,-1.10
2023-03-04T02:48:01.238Z,-1.10
2023-03-04T02:50:31.192Z,-1.10
2023-03-04T02:52:59.691Z,-1.20
2023-03-04T02:55:28.444Z,-1.20
2023-03-04T02:57:56.652Z,-1.20
2023-03-04T03:00:24.811Z,-1.20
2023-03-04T03:02:53.253Z,-1.30
2023-03-04T03:05:23.092Z,-1.30
2023-03-04T03:07:51.232Z,-1.30
2023-03-04T03:10:19.637Z,-1.30
2023-03-04T03:12:48.185Z,-1.30
2023-03-04T03:15:16.611Z,-1.40
2023-03-04T03:17:45.189Z,-1.30
2023-03-04T03:20:14.306Z,-1.40
2023-03-04T03:22:44.000Z,-1.40
2023-03-04T03:25:12.877Z,-1.40
2023-03-04T03:27:41.443Z,-1.40
2023-03-04T03:30:10.941Z,-1.40
2023-03-04T03:32:39.311Z,-1.40
2023-03-04T03:35:07.752Z,-1.40
2023-03-04T03:37:35.927Z,-1.50
2023-03-04T03:40:05.982Z,-1.50
2023-03-04T03:42:34.157Z,-1.50
2023-03-04T03:45:02.448Z,-1.50
2023-03-04T03:47:30.582Z,-1.50
2023-03-04T03:49:58.786Z,-1.50
2023-03-04T03:52:27.122Z,-1.50
2023-03-04T03:54:55.315Z,-1.60
2023-03-04T03:57:24.969Z,-1.50
2023-03-04T03:59:53.271Z,-1.60
2023-03-04T04:02:23.116Z,-1.60
2023-03-04T04:04:51.267Z,-1.60
2023-03-04T04:07:19.790Z,-1.70
2023-03-04T04:09:48.134Z,-1.70
2023-03-04T04:12:17.044Z,-1.70
2023-03-04T04:14:46.867Z,-1.70
2023-03-04T04:17:15.177Z,-1.70
2023-03-04T04:19:45.200Z,-1.80
2023-03-04T04:22:15.054Z,-1.80
2023-03-04T04:24:45.928Z,-1.80
2023-03-04T04:27:14.126Z,-1.80
2023-03-04T04:29:42.407Z,-1.80
2023-03-04T04:32:13.342Z,-1.80
2023-03-04T04:34:41.820Z,-1.80
2023-03-04T04:37:09.974Z,-1.80
2023-03-04T04:39:38.152Z,-1.90
2023-03-04T04:42:06.636Z,-1.90
2023-03-04T04:44:34.734Z,-1.90
2023-03-04T04:47:02.928Z,-1.90
2023-03-04T04:49:32.547Z,-1.90
2023-03-04T04:52:00.639Z,-1.90
2023-03-04T04:54:31.055Z,-2.00
2023-03-04T04:56:59.338Z,-2.00
2023-03-04T04:59:27.481Z,-2.00
2023-03-04T05:01:55.731Z,-2.00
2023-03-04T05:04:23.970Z,-2.00
2023-03-04T05:06:56.027Z,-2.00
2023-03-04T05:09:24.284Z,-2.00
2023-03-04T05:11:52.749Z,-2.00
2023-03-04T05:14:20.871Z,-2.00
2023-03-04T05:16:49.069Z,-2.00
2023-03-04T05:19:17.537Z,-2.00
2023-03-04T05:21:45.835Z,-2.00
2023-03-04T05:24:15.363Z,-2.00
2023-03-04T05:26:43.661Z,-2.00
2023-03-04T05:29:11.993Z,-2.00
2023-03-04T05:31:40.096Z,-2.00
2023-03-04T05:34:08.300Z,-2.00
2023-03-04T05:36:36.647Z,-2.00
2023-03-04T05:39:04.969Z,-2.00
2023-03-04T05:41:34.601Z,-2.10
2023-03-04T05:44:02.764Z,-2.20
2023-03-04T05:46:33.464Z,-2.20
2023-03-04T05:49:01.869Z,-2.20
2023-03-04T05:51:31.041Z,-2.30
2023-03-04T05:53:59.448Z,-2.40
2023-03-04T05:56:28.175Z,-2.30
2023-03-04T05:58:59.825Z,-2.20
2023-03-04T06:01:28.017Z,-2.20
2023-03-04T06:03:56.692Z,-2.10
2023-03-04T06:06:25.088Z,-2.20
2023-03-04T06:08:53.188Z,-2.20
2023-03-04T06:11:21.282Z,-2.20
2023-03-04T06:13:49.649Z,-2.20
2023-03-04T06:16:19.246Z,-2.20
2023-03-04T06:18:47.480Z,-2.10
2023-03-04T06:21:15.770Z,-2.10
2023-03-04T06:23:45.329Z,-2.10
2023-03-04T06:26:19.041Z,-2.10
2023-03-04T06:28:47.520Z,-2.10
2023-03-04T06:31:17.816Z,-2.10
2023-03-04T06:33:47.499Z,-2.10
2023-03-04T06:36:15.885Z,-2.10
2023-03-04T06:38:44.347Z,-2.10
2023-03-04T06:41:13.111Z,-2.00
2023-03-04T06:43:41.528Z,-2.00
2023-03-04T06:46:10.148Z,-2.00
2023-03-04T06:48:41.406Z,-2.00
2023-03-04T06:51:11.623Z,-2.00
2023-03-04T06:53:40.432Z,-2.10
2023-03-04T06:56:09.796Z,-2.20
2023-03-04T06:58:37.981Z,-2.20
2023-03-04T07:01:13.196Z,-2.30
2023-03-04T07:03:41.575Z,-2.30
2023-03-04T07:06:12.295Z,-2.10
2023-03-04T07:08:40.450Z,-2.20
2023-03-04T07:11:11.748Z,-2.10
2023-03-04T07:13:42.282Z,-2.20
2023-03-04T07:16:11.260Z,-2.20
2023-03-04T07:18:39.811Z,-2.20
2023-03-04T07:21:08.534Z,-2.30
2023-03-04T07:23:38.139Z,-2.40
2023-03-04T07:26:06.685Z,-2.40
2023-03-04T07:28:35.323Z,-2.50
2023-03-04T07:31:09.748Z,-2.60
2023-03-04T07:33:37.924Z,-2.60
2023-03-04T07:36:06.411Z,-2.50
2023-03-04T07:38:34.738Z,-2.50
2023-03-04T07:41:04.534Z,-2.60
2023-03-04T07:43:32.707Z,-2.50
2023-03-04T07:46:02.079Z,-2.50
2023-03-04T07:48:30.422Z,-2.50
2023-03-04T07:51:09.003Z,-2.60
2023-03-04T07:53:37.929Z,-2.50
2023-03-04T07:56:12.728Z,-2.50
2023-03-04T07:58:40.909Z,-2.50
2023-03-04T08:01:12.890Z,-2.40
2023-03-04T08:03:41.141Z,-2.40
2023-03-04T08:06:10.037Z,-2.30
2023-03-04T08:08:38.168Z,-2.20
2023-03-04T08:11:08.621Z,-2.20
2023-03-04T08:13:37.133Z,-2.20
2023-03-04T08:16:05.845Z,-2.20
2023-03-04T08:18:34.432Z,-2.20
2023-03-04T08:21:02.573Z,-2.10
2023-03-04T08:23:30.768Z,-2.10
2023-03-04T08:26:02.024Z,-2.10
2023-03-04T08:28:31.659Z,-2.20
2023-03-04T08:30:59.841Z,-2.20
2023-03-04T08:33:28.105Z,-2.10
2023-03-04T08:35:56.456Z,-2.00
2023-03-04T08:38:24.704Z,-1.90
2023-03-04T08:40:56.576Z,-1.90
2023-03-04T08:43:25.193Z,-2.00
2023-03-04T08:45:57.889Z,-1.90
2023-03-04T08:48:26.472Z,-1.80
2023-03-04T08:50:55.163Z,-1.90
2023-03-04T08:53:23.574Z,-1.80
2023-03-04T08:55:52.537Z,-1.50
2023-03-04T08:58:20.878Z,-1.40
2023-03-04T09:00:51.646Z,-1.30
2023-03-04T09:03:21.415Z,-1.30
2023-03-04T09:05:50.024Z,-1.20
2023-03-04T09:08:18.355Z,-1.20
2023-03-04T09:10:46.940Z,-1.20
2023-03-04T09:13:16.483Z,-1.10
2023-03-04T09:15:47.836Z,-1.10
2023-03-04T09:18:16.597Z,-1.00
2023-03-04T09:20:46.533Z,-1.00
2023-03-04T09:23:14.919Z,-0.90
2023-03-04T09:25:43.813Z,-0.90
2023-03-04T09:28:12.476Z,-0.90
2023-03-04T09:30:40.744Z,-0.90
2023-03-04T09:33:09.138Z,-0.90
2023-03-04T09:35:37.357Z,-0.90
2023-03-04T09:38:07.128Z,-0.80
2023-03-04T09:40:39.435Z,-0.80
2023-03-04T09:43:12.686Z,-0.80
2023-03-04T09:45:44.314Z,-0.80
2023-03-04T09:48:14.499Z,-0.80
2023-03-04T09:50:47.968Z,-0.70
2023-03-04T09:53:21.133Z,-0.70
2023-03-04T09:55:51.420Z,-0.70
2023-03-04T09:58:26.524Z,-0.70
2023-03-04T10:00:58.800Z,-0.70
2023-03-04T10:03:30.094Z,-0.70
2023-03-04T10:06:01.031Z,-0.70
2023-03-04T10:08:39.824Z,-0.60
2023-03-04T10:11:11.096Z,-0.60
2023-03-04T10:13:42.463Z,-0.40
2023-03-04T10:16:14.320Z,-0.40
2023-03-04T10:18:45.435Z,-0.30
2023-03-04T10:21:18.829Z,-0.20
2023-03-04T10:23:49.271Z,-0.20
2023-03-04T10:26:20.914Z,-0.20
2023-03-04T10:28:52.085Z,-0.10
2023-03-04T10:31:23.647Z,-0.10
2023-03-04T10:33:51.900Z,-0.10
2023-03-04T10:36:28.592Z,-0.10
2023-03-04T10:38:58.972Z,0.00
2023-03-04T10:41:28.101Z,0.00
2023-03-04T10:44:02.237Z,0.00
2023-03-04T10:46:30.608Z,0.00
2023-03-04T10:48:59.063Z,0.00
2023-03-04T10:51:28.602Z,0.10
2023-03-04T10:53:59.854Z,0.20
2023-03-04T10:56:38.401Z,0.30
2023-03-04T10:59:24.953Z,0.20
2023-03-04T11:01:55.046Z,0.10
2023-03-04T11:04:28.163Z,0.20
2023-03-04T11:06:56.553Z,0.40
2023-03-04T11:09:26.796Z,0.50
2023-03-04T11:11:58.751Z,0.60
2023-03-04T11:14:29.654Z,0.50
2023-03-04T11:16:58.804Z,0.50
2023-03-04T11:19:31.420Z,0.50
2023-03-04T11:22:00.433Z,0.50
2023-03-04T11:24:31.439Z,0.50
2023-03-04T11:27:03.070Z,0.50
2023-03-04T11:29:33.081Z,0.50
2023-03-04T11:32:05.104Z,0.60
2023-03-04T11:34:38.790Z,0.60
2023-03-04T11:37:09.350Z,0.60
2023-03-04T11:39:40.225Z,0.80
2023-03-04T11:42:13.306Z,0.80
2023-03-04T11:44:41.751Z,0.80
2023-03-04T11:47:20.260Z,0.80
2023-03-04T11:49:53.642Z,0.80
2023-03-04T11:52:29.234Z,0.80
2023-03-04T11:55:07.264Z,0.80
2023-03-04T11:57:39.122Z,0.90
2023-03-04T12:00:20.551Z,0.90
2023-03-04T12:02:55.730Z,0.90
2023-03-04T12:05:27.971Z,1.00
2023-03-04T12:08:10.947Z,0.90
2023-03-04T12:10:43.396Z,0.80
2023-03-04T12:13:31.182Z,0.70
2023-03-04T12:16:03.476Z,0.80
2023-03-04T12:18:38.365Z,0.90
2023-03-04T12:21:16.031Z,0.90
2023-03-04T12:24:08.318Z,0.80
2023-03-04T12:26:39.911Z,0.80
2023-03-04T12:29:12.313Z,0.70
2023-03-04T12:31:43.974Z,0.70
2023-03-04T12:34:27.959Z,0.60
2023-03-04T12:36:58.549Z,0.70
2023-03-04T12:39:31.735Z,0.70
2023-03-04T12:42:05.176Z,0.80
2023-03-04T12:44:35.877Z,0.90
2023-03-04T12:47:14.449Z,0.70
2023-03-04T12:50:01.748Z,0.90
2023-03-04T12:52:35.739Z,1.00
2023-03-04T12:55:04.781Z,0.80
2023-03-04T12:57:34.794Z,0.90
2023-03-04T13:00:10.687Z,1.00
2023-03-04T13:02:46.873Z,1.00
2023-03-04T13:05:21.368Z,1.00
2023-03-04T13:07:54.323Z,1.10
2023-03-04T13:10:23.693Z,1.00
2023-03-04T13:12:53.919Z,1.00
2023-03-04T13:15:30.638Z,0.80
2023-03-04T13:18:00.225Z,0.90
2023-03-04T13:20:39.443Z,0.70
2023-03-04T13:23:28.368Z,0.80
2023-03-04T13:26:17.650Z,0.80
2023-03-04T13:28:47.450Z,0.90
2023-03-04T13:31:20.874Z,0.70
2023-03-04T13:33:54.057Z,0.60
2023-03-04T13:36:32.550Z,0.90
2023-03-04T13:39:01.834Z,0.90
2023-03-04T13:41:34.094Z,0.90
2023-03-04T13:44:11.312Z,0.90
2023-03-04T13:46:42.226Z,0.90
2023-03-04T13:49:19.438Z,0.90
2023-03-04T13:51:47.748Z,0.90
2023-03-04T13:54:17.167Z,1.00
2023-03-04T13:56:47.680Z,0.80
2023-03-04T13:59:27.956Z,0.90
2023-03-04T14:01:57.910Z,0.80
2023-03-04T14:04:31.545Z,0.90
2023-03-04T14:07:01.193Z,0.90
2023-03-04T14:09:29.996Z,0.90
2023-03-04T14:11:59.756Z,0.90
2023-03-04T14:14:30.708Z,1.00
2023-03-04T14:16:59.760Z,0.90
2023-03-04T14:19:29.114Z,0.90
2023-03-04T14:21:57.643Z,0.90
2023-03-04T14:24:25.961Z,0.90
2023-03-04T14:27:05.167Z,0.90
2023-03-04T14:29:34.772Z,0.90
2023-03-04T14:32:03.341Z,0.90
2023-03-04T14:34:33.485Z,0.90
2023-03-04T14:37:03.359Z,0.90
2023-03-04T14:39:33.207Z,0.90
2023-03-04T14:42:03.336Z,0.90
2023-03-04T14:44:36.138Z,0.90
2023-03-04T14:47:10.943Z,1.00
2023-03-04T14:49:39.675Z,1.00
2023-03-04T14:52:08.195Z,1.00
2023-03-04T14:54:37.576Z,1.00
2023-03-04T14:57:26.312Z,1.00
2023-03-04T14:59:55.107Z,0.90
2023-03-04T15:02:31.494Z,0.90
2023-03-04T15:05:01.371Z,0.90
2023-03-04T15:07:34.182Z,0.90
2023-03-04T15:10:03.092Z,0.90
2023-03-04T15:12:33.030Z,0.90
2023-03-04T15:15:01.807Z,0.90
2023-03-04T15:17:37.727Z,0.90
2023-03-04T15:20:29.455Z,0.90
2023-03-04T15:22:58.595Z,0.90
2023-03-04T15:25:26.984Z,0.90
2023-03-04T15:27:55.333Z,0.90
2023-03-04T15:30:25.560Z,0.90
2023-03-04T15:32:55.158Z,0.90
2023-03-04T15:35:23.768Z,0.90
2023-03-04T15:37:54.746Z,0.90
2023-03-04T15:40:26.264Z,1.00
2023-03-04T15:42:54.803Z,0.90
2023-03-04T15:45:26.741Z,1.00
2023-03-04T15:47:56.556Z,0.90
2023-03-04T15:50:28.094Z,0.90
2023-03-04T15:52:58.850Z,1.00
2023-03-04T15:55:27.035Z,1.00
2023-03-04T15:57:56.237Z,1.00
2023-03-04T16:00:24.750Z,1.00
2023-03-04T16:02:52.986Z,0.90
2023-03-04T16:05:22.655Z,0.90
2023-03-04T16:07:51.938Z,0.90
2023-03-04T16:10:22.528Z,1.00
2023-03-04T16:12:51.053Z,1.00
2023-03-04T16:15:20.512Z,1.00
2023-03-04T16:17:50.393Z,1.00
2023-03-04T16:20:20.320Z,1.00
2023-03-04T16:22:51.421Z,1.10
2023-03-04T16:25:20.061Z,1.10
2023-03-04T16:27:48.462Z,1.10
2023-03-04T16:30:17.607Z,1.10
2023-03-04T16:32:45.965Z,1.20
2023-03-04T16:35:17.696Z,1.20
2023-03-04T16:37:47.107Z,1.10
2023-03-04T16:40:18.094Z,1.10
2023-03-04T16:42:46.331Z,1.10
2023-03-04T16:45:17.840Z,1.10
2023-03-04T16:47:46.509Z,1.10
2023-03-04T16:50:14.978Z,1.10
2023-03-04T16:52:44.920Z,1.10
2023-03-04T16:55:16.870Z,1.10
2023-03-04T16:57:46.619Z,1.10
2023-03-04T17:00:17.186Z,1.10
2023-03-04T17:02:45.832Z,1.10
2023-03-04T17:05:16.711Z,1.20
2023-03-04T17:07:44.888Z,1.20
2023-03-04T17:10:13.663Z,1.30
2023-03-04T17:12:42.156Z,1.10
2023-03-04T17:15:13.888Z,1.20
2023-03-04T17:17:42.808Z,1.10
2023-03-04T17:20:12.895Z,1.30
2023-03-04T17:22:41.163Z,1.20
2023-03-04T17:25:09.843Z,1.20
2023-03-04T17:27:37.977Z,1.20
2023-03-04T17:30:07.128Z,1.30
2023-03-04T17:32:36.888Z,1.20
2023-03-04T17:35:05.860Z,1.10
2023-03-04T17:37:35.633Z,1.10
2023-03-04T17:40:03.886Z,1.20
2023-03-04T17:42:32.152Z,1.30
2023-03-04T17:45:00.259Z,1.20
2023-03-04T17:47:28.563Z,1.20
2023-03-04T17:49:58.271Z,1.20
2023-03-04T17:52:26.444Z,1.10
2023-03-04T17:54:55.107Z,1.20
2023-03-04T17:57:23.316Z,1.20
2023-03-04T17:59:51.451Z,1.20
2023-03-04T18:02:19.681Z,1.20
2023-03-04T18:04:50.268Z,1.20
2023-03-04T18:07:19.859Z,1.20
2023-03-04T18:09:48.260Z,1.20
2023-03-04T18:12:16.485Z,1.20
2023-03-04T18:14:44.600Z,1.20
2023-03-04T18:17:12.938Z,1.30
2023-03-04T18:19:41.127Z,1.20
2023-03-04T18:22:09.517Z,1.20
2023-03-04T18:24:41.427Z,1.20
2023-03-04T18:27:09.642Z,1.20
2023-03-04T18:29:37.869Z,1.10
2023-03-04T18:32:06.460Z,1.10
2023-03-04T18:34:34.918Z,1.10
2023-03-04T18:37:05.355Z,1.20
2023-03-04T18:39:33.547Z,1.20
2023-03-04T18:42:03.305Z,1.10
2023-03-04T18:44:31.440Z,1.10
2023-03-04T18:46:59.892Z,1.10
2023-03-04T18:49:30.599Z,1.10
2023-03-04T18:51:58.846Z,1.00
2023-03-04T18:54:29.985Z,1.00
2023-03-04T18:57:00.080Z,1.00
2023-03-04T18:59:32.665Z,1.00
2023-03-04T19:02:02.699Z,1.00
2023-03-04T19:04:31.098Z,1.00
2023-03-04T19:07:00.487Z,0.90
2023-03-04T19:09:29.058Z,0.90
2023-03-04T19:11:57.367Z,0.90
2023-03-04T19:14:25.677Z,0.90
2023-03-04T19:16:55.429Z,0.90
2023-03-04T19:19:24.697Z,0.90
2023-03-04T19:21:52.915Z,0.90
2023-03-04T19:24:21.328Z,0.80
2023-03-04T19:26:49.490Z,0.90
2023-03-04T19:29:17.767Z,0.80
2023-03-04T19:31:46.039Z,0.80
2023-03-04T19:34:15.572Z,0.80
2023-03-04T19:36:43.940Z,0.80
2023-03-04T19:39:14.265Z,0.80
2023-03-04T19:41:42.992Z,0.80
2023-03-04T19:44:11.159Z,0.70
2023-03-04T19:46:41.981Z,0.70
2023-03-04T19:49:10.416Z,0.60
2023-03-04T19:51:40.126Z,0.60
2023-03-04T19:54:09.066Z,0.50
2023-03-04T19:56:37.413Z,0.50
2023-03-04T19:59:05.766Z,0.50
2023-03-04T20:01:35.235Z,0.40
2023-03-04T20:04:08.270Z,0.40
2023-03-04T20:06:37.060Z,0.30
2023-03-04T20:09:07.086Z,0.30
2023-03-04T20:11:44.097Z,0.30
2023-03-04T20:14:19.232Z,0.30
2023-03-04T20:16:48.133Z,0.20
2023-03-04T20:19:16.277Z,0.20
2023-03-04T20:21:44.496Z,0.20
2023-03-04T20:24:15.254Z,0.10
2023-03-04T20:26:43.555Z,0.10
2023-03-04T20:29:11.801Z,0.10
2023-03-04T20:31:40.088Z,0.10
2023-03-04T20:34:12.129Z,0.10
2023-03-04T20:36:42.241Z,0.10
2023-03-04T20:39:28.017Z,0.10
2023-03-04T20:41:58.812Z,0.10
2023-03-04T20:44:27.247Z,0.10
2023-03-04T20:46:55.353Z,0.10
2023-03-04T20:49:24.558Z,0.10
2023-03-04T20:51:53.046Z,0.10
2023-03-04T20:54:21.303Z,0.10
2023-03-04T20:56:49.841Z,0.10
2023-03-04T20:59:19.583Z,0.00
2023-03-04T21:01:48.196Z,0.00
2023-03-04T21:04:16.871Z,0.00
2023-03-04T21:06:45.294Z,0.00
2023-03-04T21:09:14.622Z,-0.10
2023-03-04T21:11:42.777Z,-0.10
2023-03-04T21:14:13.491Z,-0.10
2023-03-04T21:16:46.322Z,-0.20
2023-03-04T21:19:16.557Z,-0.20
2023-03-04T21:21:45.135Z,-0.20
2023-03-04T21:24:17.974Z,-0.20
2023-03-04T21:26:47.817Z,-0.20
2023-03-04T21:29:16.585Z,-0.20
2023-03-04T21:31:47.527Z,-0.20
2023-03-04T21:34:17.841Z,-0.20
2023-03-04T21:36:46.172Z,-0.20
2023-03-04T21:39:17.813Z,-0.20
2023-03-04T21:41:46.102Z,-0.10
2023-03-04T21:44:23.077Z,-0.10
2023-03-04T21:46:59.100Z,-0.10
2023-03-04T21:49:27.638Z,-0.10
2023-03-04T21:51:55.787Z,-0.10
2023-03-04T21:54:24.228Z,-0.10
2023-03-04T21:56:52.453Z,-0.10
2023-03-04T21:59:20.630Z,-0.10
2023-03-04T22:01:49.009Z,-0.10
2023-03-04T22:04:18.716Z,-0.10
2023-03-04T22:06:46.882Z,-0.20
2023-03-04T22:09:17.368Z,-0.20
2023-03-04T22:11:45.474Z,-0.20
2023-03-04T22:14:13.963Z,-0.20
2023-03-04T22:16:58.983Z,-0.20
2023-03-04T22:19:31.370Z,-0.20
2023-03-04T22:22:00.428Z,-0.40
2023-03-04T22:24:28.911Z,-0.30
2023-03-04T22:26:57.809Z,-0.30
2023-03-04T22:29:26.048Z,-0.40
2023-03-04T22:31:54.471Z,-0.40
2023-03-04T22:34:22.686Z,-0.40
2023-03-04T22:36:52.288Z,-0.50
2023-03-04T22:39:20.585Z,-0.10
2023-03-04T22:41:49.213Z,-0.60
2023-03-04T22:44:17.358Z,-0.60
2023-03-04T22:46:45.567Z,-0.60
2023-03-04T22:49:14.439Z,-0.70
2023-03-04T22:51:43.790Z,-0.70
2023-03-04T22:54:14.299Z,-0.70
2023-03-04T22:56:42.586Z,-0.70
2023-03-04T22:59:10.748Z,-0.70
2023-03-04T23:01:38.928Z,-0.80
2023-03-04T23:04:07.312Z,-0.80
2023-03-04T23:06:35.657Z,-0.80
2023-03-04T23:09:04.243Z,-0.80
2023-03-04T23:11:35.594Z,-0.80
2023-03-04T23:14:07.210Z,-0.80
2023-03-04T23:16:38.693Z,-0.80
2023-03-04T23:19:07.586Z,-0.90
2023-03-04T23:21:36.169Z,-1.60
2023-03-04T23:24:05.494Z,-0.90
2023-03-04T23:26:36.112Z,-1.00
2023-03-04T23:29:05.121Z,-1.00
2023-03-04T23:31:34.172Z,-1.00
2023-03-04T23:34:03.257Z,-1.00
2023-03-04T23:36:32.537Z,-1.00
2023-03-04T23:39:01.237Z,-1.10
2023-03-04T23:41:30.557Z,-1.10
2023-03-04T23:44:00.439Z,-1.10
2023-03-04T23:46:28.850Z,-1.20
2023-03-04T23:48:57.129Z,-1.20
2023-03-04T23:51:26.861Z,-1.20
2023-03-04T23:53:55.298Z,-1.20
2023-03-04T23:56:27.258Z,-1.20
2023-03-04T23:58:55.991Z,-1.20
